Time;durP1;ratioP1;P1;durP2;ratioP2;P2;SDS_P1;SDS_P2;PMS_P1;PMS_P2;Temp;Humidity;BMP_temperature;BMP_pressure;BME280_temperature;BME280_humidity;BME280_pressure;Samples;Min_cycle;Max_cycle;Signal;HPM_P1;HPM_P2
2023/04/28 00:00:16;;;;;;;;;15.33;15.33;;;;;22.19;100.00;100788.88;5058261;28;45369;-75
2023/04/28 00:02:42;;;;;;;;;13.67;13.67;;;;;22.16;100.00;100775.84;5059322;28;46714;-75
2023/04/28 00:05:07;;;;;;;;;12.00;12.00;;;;;22.24;100.00;100769.16;5058855;28;53443;-75
2023/04/28 00:07:33;;;;;;;;;12.67;11.00;;;;;22.25;100.00;100759.97;5059246;28;45300;-75
2023/04/28 00:09:58;;;;;;;;;12.33;12.33;;;;;22.24;100.00;100761.03;5058443;28;45337;-75
2023/04/28 00:12:24;;;;;;;;;11.00;11.00;;;;;22.23;100.00;100761.31;5059217;28;45374;-75
2023/04/28 00:14:49;;;;;;;;;11.33;10.67;;;;;22.19;100.00;100763.69;5059377;28;45260;-75
2023/04/28 00:17:14;;;;;;;;;15.33;14.67;;;;;22.15;100.00;100766.06;5059373;28;45237;-75
2023/04/28 00:19:40;;;;;;;;;14.00;14.00;;;;;22.17;100.00;100760.41;5059269;28;45477;-75
2023/04/28 00:22:05;;;;;;;;;13.67;13.00;;;;;22.27;100.00;100774.06;5058929;28;45198;-75
2023/04/28 00:24:32;;;;;;;;;12.00;12.00;;;;;22.29;100.00;100782.75;5057765;28;47205;-75
2023/04/28 00:26:57;;;;;;;;;14.00;14.00;;;;;22.33;100.00;100780.38;5057931;28;45745;-75
2023/04/28 00:29:23;;;;;;;;;16.33;15.00;;;;;22.28;100.00;100767.59;5066915;28;45687;-75
2023/04/28 00:31:48;;;;;;;;;11.67;11.67;;;;;22.21;100.00;100766.97;5078899;28;55238;-75
2023/04/28 00:34:14;;;;;;;;;13.33;12.67;;;;;22.28;100.00;100781.13;5079313;27;50098;-74
2023/04/28 00:36:39;;;;;;;;;12.00;11.67;;;;;22.23;100.00;100783.75;5078848;27;45285;-75
2023/04/28 00:39:05;;;;;;;;;13.33;13.33;;;;;22.20;100.00;100773.44;5078164;28;45357;-75
2023/04/28 00:41:30;;;;;;;;;12.00;11.33;;;;;22.15;100.00;100754.44;5079324;27;45371;-75
2023/04/28 00:43:55;;;;;;;;;13.00;12.00;;;;;22.18;100.00;100786.41;5078958;28;52264;-75
2023/04/28 00:46:28;;;;;;;;;13.00;12.00;;;;;22.16;100.00;100789.38;5079248;27;45243;-74
2023/04/28 00:48:54;;;;;;;;;13.67;13.33;;;;;22.17;100.00;100780.19;5079290;27;45291;-74
2023/04/28 00:51:20;;;;;;;;;11.67;11.67;;;;;22.12;100.00;100780.09;5079274;27;45393;-75
2023/04/28 00:53:45;;;;;;;;;12.33;12.33;;;;;22.08;100.00;100778.97;5081126;28;48018;-74
2023/04/28 00:56:11;;;;;;;;;12.00;12.00;;;;;22.07;100.00;100780.03;5082516;27;45290;-75
2023/04/28 00:58:37;;;;;;;;;10.33;10.00;;;;;22.05;100.00;100780.28;5081364;28;45332;-75
2023/04/28 01:01:07;;;;;;;;;11.00;11.00;;;;;22.02;100.00;100777.25;5082596;27;45552;-74
2023/04/28 01:03:36;;;;;;;;;13.00;12.00;;;;;22.06;100.00;100775.72;5081080;28;48059;-75
2023/04/28 01:06:03;;;;;;;;;9.00;9.00;;;;;22.06;100.00;100768.41;5082071;27;45351;-75
2023/04/28 01:08:33;;;;;;;;;10.33;10.33;;;;;22.13;100.00;100770.09;5082528;27;45310;-75
2023/04/28 01:10:58;;;;;;;;;8.67;8.67;;;;;22.15;100.00;100765.25;5082227;27;45470;-75
2023/04/28 01:13:24;;;;;;;;;10.00;10.00;;;;;22.12;100.00;100763.84;5082249;27;46289;-75
2023/04/28 01:15:50;;;;;;;;;10.00;10.00;;;;;22.16;100.00;100767.72;5082310;27;45372;-75
2023/04/28 01:18:15;;;;;;;;;8.00;7.00;;;;;22.19;100.00;100760.97;5081127;28;45298;-75
2023/04/28 01:20:41;;;;;;;;;9.33;9.33;;;;;22.23;100.00;100756.69;5080607;28;47495;-74
2023/04/28 01:23:13;;;;;;;;;11.33;11.33;;;;;22.27;100.00;100770.56;5082071;27;45326;-75
2023/04/28 01:25:39;;;;;;;;;9.33;9.33;;;;;22.23;100.00;100769.44;5082085;27;45668;-75
2023/04/28 01:28:05;;;;;;;;;10.00;9.00;;;;;22.23;100.00;100778.34;5082188;27;45499;-75
2023/04/28 01:30:31;;;;;;;;;10.33;9.00;;;;;22.26;100.00;100774.31;5062912;27;45325;-75
2023/04/28 01:32:57;;;;;;;;;10.67;9.00;;;;;22.23;100.00;100764.81;5059998;28;47216;-75
2023/04/28 01:35:22;;;;;;;;;10.67;10.67;;;;;22.27;100.00;100774.06;5061364;28;45393;-75
2023/04/28 01:37:48;;;;;;;;;10.33;9.00;;;;;22.30;100.00;100789.00;5061839;28;45389;-76
2023/04/28 01:40:13;;;;;;;;;8.67;8.67;;;;;22.26;100.00;100771.59;5061677;28;45355;-75
2023/04/28 01:42:38;;;;;;;;;11.00;11.00;;;;;22.22;100.00;100763.19;5061634;28;45311;-75
2023/04/28 01:45:04;;;;;;;;;7.00;7.00;;;;;22.29;100.00;100769.22;5061670;28;45257;-75
2023/04/28 01:47:30;;;;;;;;;10.33;10.33;;;;;22.29;100.00;100766.50;5060490;28;45402;-75
2023/04/28 01:49:55;;;;;;;;;10.00;10.00;;;;;22.26;100.00;100777.84;5061458;28;45362;-75
2023/04/28 01:52:23;;;;;;;;;8.00;8.00;;;;;22.21;100.00;100772.38;5060726;28;45417;-74
2023/04/28 01:54:48;;;;;;;;;9.00;7.67;;;;;22.27;100.00;100779.47;5061566;28;45169;-74
2023/04/28 01:57:13;;;;;;;;;6.33;6.33;;;;;22.22;100.00;100786.72;5061491;28;45345;-74
2023/04/28 01:59:39;;;;;;;;;7.67;7.67;;;;;22.25;100.00;100789.75;5061111;28;53483;-75
2023/04/28 02:02:05;;;;;;;;;8.67;8.67;;;;;22.27;100.00;100789.50;5061238;28;45323;-75
2023/04/28 02:04:30;;;;;;;;;11.33;9.33;;;;;22.23;100.00;100780.25;5060755;28;45330;-74
2023/04/28 02:06:55;;;;;;;;;6.00;6.00;;;;;22.24;100.00;100773.75;5060468;28;52362;-74
2023/04/28 02:09:20;;;;;;;;;10.00;9.00;;;;;22.26;100.00;100775.13;5060836;28;55699;-74
2023/04/28 02:11:46;;;;;;;;;7.67;7.67;;;;;22.23;100.00;100772.94;5061091;28;46086;-75
2023/04/28 02:14:11;;;;;;;;;7.67;7.67;;;;;22.26;100.00;100775.13;5061174;28;46276;-74
2023/04/28 02:16:36;;;;;;;;;8.33;8.33;;;;;22.28;100.00;100773.00;5059838;28;45433;-74
2023/04/28 02:19:02;;;;;;;;;8.00;8.00;;;;;22.32;100.00;100770.59;5061075;28;45533;-75
2023/04/28 02:21:27;;;;;;;;;7.33;7.00;;;;;22.26;100.00;100764.31;5060676;28;46060;-74
2023/04/28 02:23:52;;;;;;;;;10.00;8.33;;;;;22.24;100.00;100763.72;5060954;28;45351;-74
2023/04/28 02:26:18;;;;;;;;;7.33;7.33;;;;;22.25;100.00;100765.38;5059588;28;45315;-75
2023/04/28 02:28:43;;;;;;;;;6.67;6.67;;;;;22.18;100.00;100753.94;5063044;28;45981;-74
2023/04/28 02:31:10;;;;;;;;;11.00;10.00;;;;;22.28;100.00;100762.19;5079299;28;48279;-75
2023/04/28 02:33:37;;;;;;;;;7.67;7.67;;;;;22.27;100.00;100767.84;5079762;28;45924;-74
2023/04/28 02:36:04;;;;;;;;;5.33;5.33;;;;;22.29;100.00;100768.38;5080734;27;45219;-74
2023/04/28 02:38:30;;;;;;;;;8.00;8.00;;;;;22.25;100.00;100762.69;5080894;27;45612;-75
2023/04/28 02:41:04;;;;;;;;;7.67;6.67;;;;;22.27;100.00;100763.22;5079518;28;47432;-75
2023/04/28 02:43:32;;;;;;;;;6.33;6.33;;;;;22.27;100.00;100774.06;5080798;28;45393;-75
2023/04/28 02:45:58;;;;;;;;;6.33;5.67;;;;;22.25;100.00;100778.91;5080971;27;45468;-76
2023/04/28 02:48:24;;;;;;;;;5.00;5.00;;;;;22.19;100.00;100771.81;5080797;28;45301;-75
2023/04/28 02:50:50;;;;;;;;;6.00;6.00;;;;;22.22;100.00;100779.41;5079058;28;46174;-75
2023/04/28 02:53:15;;;;;;;;;4.00;4.00;;;;;22.24;100.00;100781.88;5079283;28;45750;-75
2023/04/28 02:55:41;;;;;;;;;4.67;4.67;;;;;22.27;100.00;100789.50;5080761;27;45322;-75
2023/04/28 02:58:07;;;;;;;;;6.33;3.67;;;;;22.24;100.00;100790.00;5079219;28;46920;-75
2023/04/28 03:00:32;;;;;;;;;5.00;5.00;;;;;22.27;100.00;100797.63;5080543;27;45199;-75
2023/04/28 03:02:58;;;;;;;;;4.00;4.00;;;;;22.19;100.00;100785.34;5079158;28;45253;-75
2023/04/28 03:05:23;;;;;;;;;4.00;4.00;;;;;22.23;100.00;100788.38;5080589;27;45463;-75
2023/04/28 03:07:48;;;;;;;;;4.33;4.33;;;;;22.25;100.00;100794.34;5080662;27;45388;-76
2023/04/28 03:10:13;;;;;;;;;4.33;3.67;;;;;22.27;100.00;100784.88;5080052;28;52832;-75
2023/04/28 03:12:39;;;;;;;;;5.00;3.67;;;;;22.23;100.00;100774.84;5078696;28;56646;-75
2023/04/28 03:15:07;;;;;;;;;3.00;3.00;;;;;22.26;100.00;100772.44;5079544;27;45336;-75
2023/04/28 03:17:32;;;;;;;;;5.00;5.00;;;;;22.28;100.00;100773.00;5080292;27;46032;-76
2023/04/28 03:19:58;;;;;;;;;4.00;4.00;;;;;22.24;100.00;100765.63;5080255;27;45387;-75
2023/04/28 03:22:23;;;;;;;;;3.33;3.33;;;;;22.27;100.00;100765.94;5080074;27;45365;-76
2023/04/28 03:24:48;;;;;;;;;3.00;2.67;;;;;22.23;100.00;100767.50;5079075;28;46857;-76
2023/04/28 03:27:14;;;;;;;;;3.00;3.00;;;;;22.24;100.00;100769.16;5080246;27;46463;-75
2023/04/28 03:29:39;;;;;;;;;2.67;2.67;;;;;22.23;100.00;100774.84;5068380;27;45322;-76
2023/04/28 03:32:05;;;;;;;;;3.00;3.00;;;;;22.24;100.00;100771.84;5059963;28;45341;-76
2023/04/28 03:34:30;;;;;;;;;3.00;3.00;;;;;22.25;100.00;100776.22;5060043;28;45275;-76
2023/04/28 03:36:56;;;;;;;;;3.00;2.00;;;;;22.27;100.00;100790.28;5059276;28;45488;-76
2023/04/28 03:39:21;;;;;;;;;2.67;2.33;;;;;22.28;100.00;100772.19;5059727;28;45308;-76
2023/04/28 03:41:46;;;;;;;;;3.67;3.67;;;;;22.35;100.00;100774.72;5058498;28;45640;-76
2023/04/28 03:44:12;;;;;;;;;3.33;3.33;;;;;22.28;100.00;100770.28;5058651;28;45300;-76
2023/04/28 03:46:37;;;;;;;;;2.00;2.00;;;;;22.30;100.00;100768.13;5059773;28;45282;-76
2023/04/28 03:49:02;;;;;;;;;3.00;3.00;;;;;22.32;100.00;100776.84;5059607;28;45292;-75
2023/04/28 03:51:28;;;;;;;;;3.33;3.33;;;;;22.29;100.00;100777.34;5059439;28;45189;-76
2023/04/28 03:53:54;;;;;;;;;3.33;3.33;;;;;22.37;100.00;100780.66;5059737;28;45339;-76
2023/04/28 03:56:20;;;;;;;;;4.00;4.00;;;;;22.32;100.00;100770.59;5059544;28;45309;-76
2023/04/28 03:58:45;;;;;;;;;2.33;2.33;;;;;22.31;100.00;100775.22;5058105;28;48323;-76
2023/04/28 04:01:11;;;;;;;;;3.33;3.33;;;;;22.30;100.00;100781.69;5058121;28;49010;-76
2023/04/28 04:03:36;;;;;;;;;3.00;3.00;;;;;22.35;100.00;100780.13;5059350;28;45366;-76
2023/04/28 04:06:01;;;;;;;;;3.00;3.00;;;;;22.27;100.00;100773.25;5056811;28;52688;-76
2023/04/28 04:08:27;;;;;;;;;3.00;3.00;;;;;22.32;100.00;100782.25;5059305;28;45367;-76
2023/04/28 04:10:53;;;;;;;;;3.67;2.33;;;;;22.33;100.00;100786.59;5059180;28;45393;-76
2023/04/28 04:13:19;;;;;;;;;3.00;3.00;;;;;22.36;100.00;100762.81;5059643;28;45330;-76
2023/04/28 04:15:45;;;;;;;;;3.00;3.00;;;;;22.28;100.00;100764.88;5059155;28;45482;-75
2023/04/28 04:18:10;;;;;;;;;2.00;2.00;;;;;22.36;100.00;100781.75;5059051;28;47030;-76
2023/04/28 04:20:35;;;;;;;;;2.00;2.00;;;;;22.32;100.00;100774.13;5058563;28;45271;-76
2023/04/28 04:23:01;;;;;;;;;3.67;3.33;;;;;22.30;100.00;100783.59;5057640;28;51646;-76
2023/04/28 04:25:26;;;;;;;;;3.00;3.00;;;;;22.32;100.00;100779.53;5057646;28;57538;-76
2023/04/28 04:27:51;;;;;;;;;2.00;2.00;;;;;22.28;100.00;100773.00;5060008;28;58816;-75
2023/04/28 04:30:17;;;;;;;;;3.00;2.00;;;;;22.29;100.00;100773.81;5079190;28;45136;-76
2023/04/28 04:32:42;;;;;;;;;4.00;4.00;;;;;22.22;100.00;100779.41;5083012;27;45206;-76
2023/04/28 04:35:08;;;;;;;;;2.00;2.00;;;;;22.23;100.00;100785.66;5081496;28;45878;-76
2023/04/28 04:37:33;;;;;;;;;1.67;1.00;;;;;22.27;100.00;100787.59;5082513;27;45449;-76
2023/04/28 04:39:58;;;;;;;;;2.00;1.00;;;;;22.30;100.00;100780.88;5081498;28;45421;-76
2023/04/28 04:42:24;;;;;;;;;3.00;3.00;;;;;22.23;100.00;100781.06;5083103;27;45245;-75
2023/04/28 04:44:49;;;;;;;;;3.00;3.00;;;;;22.25;100.00;100784.34;5082902;27;45298;-75
2023/04/28 04:47:14;;;;;;;;;2.67;2.67;;;;;22.22;100.00;100784.84;5081178;28;50897;-75
2023/04/28 04:49:39;;;;;;;;;2.67;2.67;;;;;22.24;100.00;100779.16;5082688;27;45311;-76
2023/04/28 04:52:05;;;;;;;;;2.00;2.00;;;;;22.24;100.00;100782.69;5082220;28;50922;-75
2023/04/28 04:54:31;;;;;;;;;2.33;2.33;;;;;22.24;100.00;100782.69;5082654;28;45358;-77
2023/04/28 04:56:56;;;;;;;;;2.00;2.00;;;;;22.25;100.00;100776.22;5082557;28;45386;-75
2023/04/28 04:59:22;;;;;;;;;2.00;2.00;;;;;22.24;100.00;100787.28;5082662;27;45369;-76
2023/04/28 05:01:47;;;;;;;;;3.67;3.00;;;;;22.20;100.00;100778.84;5081468;28;45481;-75
2023/04/28 05:04:12;;;;;;;;;2.33;2.33;;;;;22.25;100.00;100792.47;5081028;28;46007;-74
2023/04/28 05:06:39;;;;;;;;;2.67;2.67;;;;;22.16;100.00;100792.09;5081913;28;53773;-74
2023/04/28 05:09:04;;;;;;;;;2.67;2.33;;;;;22.22;100.00;100811.91;5081197;28;45354;-75
2023/04/28 05:11:30;;;;;;;;;2.67;2.67;;;;;22.18;100.00;100800.75;5081116;28;45378;-75
2023/04/28 05:13:55;;;;;;;;;3.00;1.33;;;;;22.22;100.00;100806.50;5080626;28;45861;-76
2023/04/28 05:16:21;;;;;;;;;2.00;2.00;;;;;22.27;100.00;100803.03;5065686;28;47252;-76
2023/04/28 05:18:47;;;;;;;;;2.67;1.67;;;;;22.20;100.00;100803.19;5062058;28;45239;-74
2023/04/28 05:21:12;;;;;;;;;2.00;2.00;;;;;22.19;100.00;100798.88;5062000;28;45232;-74
2023/04/28 05:23:37;;;;;;;;;3.00;2.00;;;;;22.16;100.00;100810.19;5060597;28;45998;-74
2023/04/28 05:26:03;;;;;;;;;0.00;0.00;;;;;22.17;100.00;100814.53;5061904;28;46272;-74
2023/04/28 05:28:29;;;;;;;;;2.00;2.00;;;;;22.15;100.00;100806.66;5062126;28;45402;-75
2023/04/28 05:30:55;;;;;;;;;2.00;2.00;;;;;22.16;100.00;100804.78;5082305;28;45361;-74
2023/04/28 05:33:21;;;;;;;;;1.00;1.00;;;;;22.24;100.00;100817.06;5081711;27;45314;-75
2023/04/28 05:35:46;;;;;;;;;1.00;1.00;;;;;22.16;100.00;100810.19;5081525;27;46397;-74
2023/04/28 05:38:12;;;;;;;;;2.00;2.00;;;;;22.20;100.00;100820.28;5080565;27;45385;-74
2023/04/28 05:40:37;;;;;;;;;2.00;2.00;;;;;22.26;100.00;100815.75;5081117;27;45405;-75
2023/04/28 05:43:02;;;;;;;;;2.33;1.33;;;;;22.06;100.00;100784.63;5081765;27;47322;-74
2023/04/28 05:45:28;;;;;;;;;1.00;1.00;;;;;22.24;100.00;100819.78;5081609;28;49367;-74
2023/04/28 05:47:54;;;;;;;;;2.00;2.00;;;;;22.22;100.00;100814.59;5081839;27;45362;-74
2023/04/28 05:50:20;;;;;;;;;2.00;2.00;;;;;22.18;100.00;100818.91;5080088;28;45366;-75
2023/04/28 05:52:45;;;;;;;;;4.33;3.67;;;;;22.27;100.00;100813.84;5081736;27;45544;-74
2023/04/28 05:55:11;;;;;;;;;3.00;3.00;;;;;22.30;100.00;100806.03;5081684;27;45200;-74
2023/04/28 05:57:36;;;;;;;;;3.00;3.00;;;;;22.32;100.00;100803.91;5081656;27;49006;-74
2023/04/28 06:00:02;;;;;;;;;2.67;2.67;;;;;22.38;100.00;100823.72;5081773;28;45206;-74
2023/04/28 06:02:27;;;;;;;;;4.67;4.33;;;;;22.40;100.00;100823.47;5080110;28;46156;-74
2023/04/28 06:04:53;;;;;;;;;4.00;4.00;;;;;22.41;100.00;100827.81;5081432;28;49595;-74
2023/04/28 06:07:18;;;;;;;;;2.33;2.33;;;;;22.44;100.00;100828.13;5081386;27;45169;-75
2023/04/28 06:09:43;;;;;;;;;1.33;1.33;;;;;22.42;100.00;100819.44;5081599;27;45213;-75
2023/04/28 06:12:09;;;;;;;;;2.67;2.33;;;;;22.39;100.00;100819.94;5081485;27;45429;-74
2023/04/28 06:14:36;;;;;;;;;3.00;3.00;;;;;22.40;100.00;100820.78;5080068;28;48456;-75
2023/04/28 06:17:02;;;;;;;;;1.67;1.67;;;;;22.32;100.00;100820.16;5081481;27;45397;-75
2023/04/28 06:19:27;;;;;;;;;2.00;2.00;;;;;22.43;100.00;100831.09;5081533;27;45339;-74
2023/04/28 06:21:53;;;;;;;;;2.00;2.00;;;;;22.44;100.00;100832.72;5079779;28;45858;-74
2023/04/28 06:24:18;;;;;;;;;4.00;2.00;;;;;22.43;100.00;100839.22;5081210;27;45470;-74
2023/04/28 06:26:43;;;;;;;;;3.00;3.00;;;;;22.44;100.00;100838.16;5081243;27;45336;-75
2023/04/28 06:29:09;;;;;;;;;0.00;0.00;;;;;22.45;100.00;100839.81;5072499;28;45329;-74
2023/04/28 06:31:34;;;;;;;;;2.00;2.00;;;;;22.49;100.00;100834.69;5060706;28;45271;-74
2023/04/28 06:33:59;;;;;;;;;3.00;3.00;;;;;22.56;100.00;100844.25;5060850;28;45361;-74
2023/04/28 06:36:25;;;;;;;;;2.00;2.00;;;;;22.56;100.00;100827.19;5060310;28;45321;-75
2023/04/28 06:38:50;;;;;;;;;3.00;3.00;;;;;22.61;100.00;100840.00;5061070;28;45496;-75
2023/04/28 06:41:15;;;;;;;;;4.00;4.00;;;;;22.60;100.00;100827.53;5060940;28;45224;-74
2023/04/28 06:43:41;;;;;;;;;2.67;1.33;;;;;22.65;100.00;100833.00;5060407;28;53213;-75
2023/04/28 06:46:06;;;;;;;;;2.67;2.67;;;;;22.63;100.00;100827.84;5060735;28;45312;-75
2023/04/28 06:48:32;;;;;;;;;4.67;3.00;;;;;22.65;100.00;100841.13;5059440;28;45212;-74
2023/04/28 06:50:57;;;;;;;;;5.00;3.00;;;;;22.66;100.00;100840.06;5058636;28;46069;-75
2023/04/28 06:53:23;;;;;;;;;3.00;3.00;;;;;22.64;100.00;100840.31;5060563;28;46421;-75
2023/04/28 06:55:48;;;;;;;;;5.00;5.00;;;;;22.60;100.00;100838.38;5059032;28;46377;-74
2023/04/28 06:58:14;;;;;;;;;3.00;3.00;;;;;22.62;100.00;100844.38;5059091;28;49055;-74
2023/04/28 07:00:39;;;;;;;;;4.67;4.67;;;;;22.68;100.00;100854.16;5058957;28;47224;-74
2023/04/28 07:03:05;;;;;;;;;5.00;3.00;;;;;22.60;100.00;100843.78;5060233;28;45916;-74
2023/04/28 07:05:32;;;;;;;;;6.67;6.67;;;;;22.64;100.00;100861.16;5060170;28;45285;-74
2023/04/28 07:07:57;;;;;;;;;3.67;3.67;;;;;22.66;100.00;100856.31;5060416;28;45378;-74
2023/04/28 07:10:23;;;;;;;;;4.67;4.67;;;;;22.62;100.00;100845.16;5058297;28;53933;-75
2023/04/28 07:12:51;;;;;;;;;4.00;4.00;;;;;22.58;100.00;100846.75;5058933;28;46958;-74
2023/04/28 07:15:16;;;;;;;;;4.00;4.00;;;;;22.68;100.00;100849.56;5060373;28;45228;-74
2023/04/28 07:17:42;;;;;;;;;4.00;4.00;;;;;22.69;100.00;100855.81;5058982;28;45278;-75
2023/04/28 07:20:07;;;;;;;;;4.00;4.00;;;;;22.76;100.00;100852.91;5059936;28;45501;-75
2023/04/28 07:22:33;;;;;;;;;4.00;4.00;;;;;22.76;100.00;100866.44;5058642;28;48133;-75
2023/04/28 07:24:58;;;;;;;;;5.33;4.00;;;;;22.83;100.00;100865.19;5060197;28;45252;-74
2023/04/28 07:27:23;;;;;;;;;4.00;4.00;;;;;22.84;100.00;100860.59;5058969;28;46152;-74
2023/04/28 07:29:49;;;;;;;;;5.00;3.33;;;;;22.88;100.00;100866.31;5072687;28;45453;-74
2023/04/28 07:32:14;;;;;;;;;3.00;3.00;;;;;22.87;100.00;100864.66;5079999;27;45370;-74
2023/04/28 07:34:39;;;;;;;;;4.33;4.33;;;;;22.93;100.00;100872.59;5080226;27;45349;-75
2023/04/28 07:37:05;;;;;;;;;4.67;3.67;;;;;22.91;100.00;100865.78;5079919;27;45232;-75
2023/04/28 07:39:32;;;;;;;;;4.67;4.33;;;;;22.94;100.00;100874.25;5078833;28;46079;-74
2023/04/28 07:41:58;;;;;;;;;4.67;4.67;;;;;22.97;100.00;100872.91;5080178;27;45346;-74
2023/04/28 07:44:24;;;;;;;;;3.33;3.33;;;;;22.98;100.00;100874.53;5078664;28;45265;-74
2023/04/28 07:46:49;;;;;;;;;5.00;5.00;;;;;22.99;100.00;100876.19;5078634;28;45227;-74
2023/04/28 07:49:15;;;;;;;;;5.33;5.33;;;;;22.97;100.00;100875.63;5079892;27;45489;-74
2023/04/28 07:51:40;;;;;;;;;4.00;4.00;;;;;23.04;100.00;100878.09;5077821;28;58287;-75
2023/04/28 07:54:06;;;;;;;;;3.67;3.67;;;;;23.01;100.00;100871.31;5080053;27;45219;-74
2023/04/28 07:56:31;;;;;;;;;3.67;3.67;;;;;23.03;100.00;100877.31;5078583;28;45251;-74
2023/04/28 07:58:56;;;;;;;;;5.33;4.00;;;;;23.06;100.00;100874.09;5079938;27;45287;-75
2023/04/28 08:01:22;;;;;;;;;6.00;6.00;;;;;23.17;100.00;100877.69;5079152;27;45322;-75
2023/04/28 08:03:47;;;;;;;;;4.00;4.00;;;;;23.19;100.00;100864.72;5078617;28;45229;-75
2023/04/28 08:06:12;;;;;;;;;6.00;5.00;;;;;23.23;100.00;100861.50;5078163;28;45287;-74
2023/04/28 08:08:38;;;;;;;;;4.00;4.00;;;;;23.35;100.00;100873.00;5079740;27;45524;-74
2023/04/28 08:11:03;;;;;;;;;4.00;4.00;;;;;23.36;100.00;100869.22;5078265;28;48098;-75
2023/04/28 08:13:29;;;;;;;;;7.00;6.33;;;;;23.44;100.00;100876.09;5079659;27;45384;-75
2023/04/28 08:15:55;;;;;;;;;7.00;6.00;;;;;23.42;100.00;100872.81;5079801;28;45318;-74
2023/04/28 08:18:21;;;;;;;;;4.00;4.00;;;;;23.44;100.00;100874.19;5079541;27;45567;-74
2023/04/28 08:20:46;;;;;;;;;4.00;4.00;;;;;23.54;100.00;100884.31;5077917;28;46831;-75
2023/04/28 08:23:12;;;;;;;;;6.00;5.67;;;;;23.54;100.00;100875.34;5079595;27;45310;-75
2023/04/28 08:25:37;;;;;;;;;8.33;5.00;;;;;23.51;100.00;100882.13;5079641;27;45361;-75
2023/04/28 08:28:03;;;;;;;;;5.00;5.00;;;;;23.53;100.00;100888.13;5079400;27;48741;-75
2023/04/28 08:30:28;;;;;;;;;5.00;5.00;;;;;23.55;100.00;100890.53;5060724;27;45342;-75
2023/04/28 08:32:54;;;;;;;;;5.33;5.33;;;;;23.50;100.00;100883.19;5059006;28;45331;-75
2023/04/28 08:35:19;;;;;;;;;7.00;6.00;;;;;23.56;100.00;100892.19;5057531;28;45436;-75
2023/04/28 08:37:46;;;;;;;;;6.67;5.00;;;;;23.54;100.00;100883.50;5059174;28;45494;-75
2023/04/28 08:40:11;;;;;;;;;4.00;3.00;;;;;23.52;100.00;100889.16;5059000;28;46195;-75
2023/04/28 08:42:37;;;;;;;;;3.00;3.00;;;;;23.38;100.00;100877.94;5058916;28;45260;-75
2023/04/28 08:45:04;;;;;;;;;8.00;6.33;;;;;23.50;100.00;100888.63;5057884;28;45488;-75
2023/04/28 08:47:37;;;;;;;;;4.00;4.00;;;;;23.57;100.00;100899.25;5057598;28;46218;-75
2023/04/28 08:50:07;;;;;;;;;5.00;5.00;;;;;23.61;100.00;100884.09;5058566;28;45229;-75
2023/04/28 08:52:34;;;;;;;;;4.00;4.00;;;;;23.54;100.00;100878.88;5058857;28;45539;-75
2023/04/28 08:55:02;;;;;;;;;5.33;4.00;;;;;23.63;100.00;100891.97;5058864;28;45287;-75
2023/04/28 08:57:41;;;;;;;;;5.33;5.33;;;;;23.65;100.00;100887.09;5058935;28;45219;-74
2023/04/28 09:00:07;;;;;;;;;5.33;5.33;;;;;23.65;100.00;100890.66;5057215;28;47186;-75
2023/04/28 09:02:32;;;;;;;;;6.33;6.00;;;;;23.73;100.00;100902.91;5058867;28;45344;-75
2023/04/28 09:04:57;;;;;;;;;5.00;5.00;;;;;23.72;100.00;100890.41;5057507;28;45782;-75
2023/04/28 09:07:23;;;;;;;;;4.00;4.00;;;;;23.77;100.00;100898.59;5058242;28;55865;-76
2023/04/28 09:09:48;;;;;;;;;6.00;5.33;;;;;23.82;100.00;100892.38;5057328;28;47015;-75
2023/04/28 09:12:14;;;;;;;;;3.67;3.67;;;;;23.87;100.00;100897.03;5058789;28;45320;-75
2023/04/28 09:14:39;;;;;;;;;3.00;3.00;;;;;23.91;100.00;100907.09;5061315;28;45333;-76
2023/04/28 09:17:13;;;;;;;;;4.67;4.67;;;;;23.94;100.00;100893.00;5060832;28;47028;-75
2023/04/28 09:19:41;;;;;;;;;4.33;3.67;;;;;24.01;100.00;100900.13;5062052;28;45354;-76
2023/04/28 09:22:07;;;;;;;;;7.33;7.33;;;;;24.05;100.00;100898.50;5061681;28;45169;-76
2023/04/28 09:24:39;;;;;;;;;5.00;4.67;;;;;23.94;100.00;100895.72;5062075;28;45228;-76
2023/04/28 09:27:14;;;;;;;;;5.67;5.00;;;;;23.95;100.00;100897.34;5061923;28;45228;-75
2023/04/28 09:29:52;;;;;;;;;5.33;5.00;;;;;23.95;100.00;100888.41;5071722;28;47725;-76
2023/04/28 09:32:20;;;;;;;;;5.00;5.00;;;;;24.00;100.00;100896.56;5082000;27;45406;-76
2023/04/28 09:34:50;;;;;;;;;4.00;3.33;;;;;23.99;100.00;100900.38;5080905;28;45508;-76
2023/04/28 09:37:21;;;;;;;;;3.33;3.33;;;;;23.93;100.00;100912.28;5080202;27;45657;-76
2023/04/28 09:39:49;;;;;;;;;5.33;4.00;;;;;23.91;100.00;100901.66;5082014;28;45389;-76
2023/04/28 09:42:43;;;;;;;;;3.00;3.00;;;;;23.94;100.00;100917.44;5082059;27;45180;-75
2023/04/28 09:45:10;;;;;;;;;4.00;3.00;;;;;23.86;100.00;100900.81;5080783;28;45389;-76
2023/04/28 09:47:39;;;;;;;;;4.67;4.67;;;;;23.85;100.00;100910.84;5081926;27;45263;-76
2023/04/28 09:50:10;;;;;;;;;4.00;2.67;;;;;23.90;100.00;100893.78;5081399;28;45314;-76
2023/04/28 09:52:36;;;;;;;;;3.00;3.00;;;;;24.03;100.00;100895.25;5080215;28;45363;-76
2023/04/28 09:55:04;;;;;;;;;2.00;2.00;;;;;24.12;100.00;100903.72;5080606;28;45313;-75
2023/04/28 09:57:34;;;;;;;;;2.00;2.00;;;;;24.11;100.00;100910.22;5081762;27;45382;-76
2023/04/28 10:00:00;;;;;;;;;2.33;2.33;;;;;24.03;100.00;100893.34;5081489;27;46183;-76
2023/04/28 10:02:26;;;;;;;;;2.33;2.33;;;;;24.10;100.00;100901.25;5080315;27;45275;-76
2023/04/28 10:04:51;;;;;;;;;2.67;2.67;;;;;24.14;100.00;100912.44;5080696;27;45320;-76
2023/04/28 10:07:19;;;;;;;;;3.33;3.33;;;;;24.23;100.00;100912.75;5079037;28;47300;-76
2023/04/28 10:09:52;;;;;;;;;3.00;3.00;;;;;24.27;100.00;100913.88;5081363;27;45484;-76
2023/04/28 10:12:17;;;;;;;;;2.00;2.00;;;;;24.32;100.00;100916.63;5081595;27;45357;-75
2023/04/28 10:14:44;;;;;;;;;4.00;4.00;;;;;24.32;100.00;100898.44;5081699;28;45200;-75
2023/04/28 10:17:12;;;;;;;;;5.00;5.00;;;;;24.44;100.00;100908.25;5081446;28;45385;-75
2023/04/28 10:19:39;;;;;;;;;3.00;3.00;;;;;24.44;100.00;100900.94;5081231;28;46135;-76
2023/04/28 10:22:08;;;;;;;;;2.67;2.67;;;;;24.57;100.00;100915.94;5081019;28;45215;-76
2023/04/28 10:24:58;;;;;;;;;3.33;2.00;;;;;24.63;100.00;100908.59;5079745;28;45242;-76
2023/04/28 10:27:29;;;;;;;;;1.75;1.75;;;;;24.76;100.00;100910.03;5079859;28;46248;-76
2023/04/28 10:30:18;;;;;;;;;2.00;2.00;;;;;24.87;100.00;100918.22;5074708;27;46690;-75
2023/04/28 10:32:47;;;;;;;;;3.00;3.00;;;;;24.92;100.00;100918.25;5079673;28;45296;-75
2023/04/28 10:35:22;;;;;;;;;4.00;4.00;;;;;25.06;100.00;100918.56;5080909;28;45278;-76
2023/04/28 10:38:09;;;;;;;;;4.33;4.33;;;;;25.17;100.00;100914.78;5081162;27;45277;-76
2023/04/28 10:40:43;;;;;;;;;5.00;4.00;;;;;25.17;100.00;100913.97;5081005;27;45464;-76
2023/04/28 10:43:11;;;;;;;;;6.00;5.00;;;;;25.18;100.00;100916.44;5080992;27;45387;-75
2023/04/28 10:45:48;;;;;;;;;2.00;2.00;;;;;25.27;100.00;100918.59;5081190;27;45457;-75
2023/04/28 10:48:39;;;;;;;;;3.00;3.00;;;;;25.21;100.00;100902.28;5080805;27;45374;-76
2023/04/28 10:51:08;;;;;;;;;3.00;3.00;;;;;25.28;100.00;100917.50;5078516;28;47500;-76
2023/04/28 10:53:49;;;;;;;;;5.33;5.33;;;;;25.25;100.00;100916.16;5080874;27;45325;-76
2023/04/28 10:56:26;;;;;;;;;0.00;0.00;;;;;25.18;100.00;100921.03;5081057;27;45384;-75
2023/04/28 10:58:51;;;;;;;;;4.33;3.33;;;;;25.17;100.00;100919.41;5079517;28;47169;-75
2023/04/28 11:01:20;;;;;;;;;6.00;3.00;;;;;25.15;100.00;100918.84;5079460;28;47199;-76
2023/04/28 11:03:45;;;;;;;;;3.00;3.00;;;;;25.09;100.00;100924.28;5080764;27;45230;-75
2023/04/28 11:06:42;;;;;;;;;4.00;3.67;;;;;25.06;100.00;100924.00;5078999;28;45274;-75
2023/04/28 11:09:18;;;;;;;;;2.00;2.00;;;;;25.03;100.00;100919.09;5080392;27;45211;-75
2023/04/28 11:11:58;;;;;;;;;1.33;1.33;;;;;24.96;100.00;100919.38;5080447;27;45337;-75